sensor_id;sensor_type;location;lat;lon;timestamp;temperature;humidity
43862;DHT22;29510;52.140;5.034;2023-04-24T00:09:39;9.50;99.90
43862;DHT22;29510;52.140;5.034;2023-04-24T00:19:40;9.50;99.90
43862;DHT22;29510;52.140;5.034;2023-04-24T00:29:42;9.50;99.90
43862;DHT22;29510;52.140;5.034;2023-04-24T00:39:43;9.50;99.90
43862;DHT22;29510;52.140;5.034;2023-04-24T00:49:44;9.50;99.90
43862;DHT22;29510;52.140;5.034;2023-04-24T00:59:45;9.50;99.90
43862;DHT22;29510;52.140;5.034;2023-04-24T01:09:47;9.50;99.90
43862;DHT22;29510;52.140;5.034;2023-04-24T01:19:49;9.60;99.90
43862;DHT22;29510;52.140;5.034;2023-04-24T01:29:50;9.60;99.90
43862;DHT22;29510;52.140;5.034;2023-04-24T01:39:52;9.40;99.90
43862;DHT22;29510;52.140;5.034;2023-04-24T01:49:54;9.40;99.90
43862;DHT22;29510;52.140;5.034;2023-04-24T01:59:55;9.50;99.90
43862;DHT22;29510;52.140;5.034;2023-04-24T02:09:56;9.50;99.90
43862;DHT22;29510;52.140;5.034;2023-04-24T02:19:57;9.50;99.90
43862;DHT22;29510;52.140;5.034;2023-04-24T02:29:58;9.40;99.90
43862;DHT22;29510;52.140;5.034;2023-04-24T02:39:59;9.40;99.90
43862;DHT22;29510;52.140;5.034;2023-04-24T02:50:01;9.30;99.90
43862;DHT22;29510;52.140;5.034;2023-04-24T03:00:02;9.30;99.90
43862;DHT22;29510;52.140;5.034;2023-04-24T03:10:04;9.30;99.90
43862;DHT22;29510;52.140;5.034;2023-04-24T03:20:09;9.30;99.90
43862;DHT22;29510;52.140;5.034;2023-04-24T03:30:10;9.20;99.90
43862;DHT22;29510;52.140;5.034;2023-04-24T03:40:11;9.20;99.90
43862;DHT22;29510;52.140;5.034;2023-04-24T03:50:12;9.20;99.90
43862;DHT22;29510;52.140;5.034;2023-04-24T04:00:14;9.20;99.90
43862;DHT22;29510;52.140;5.034;2023-04-24T04:10:15;9.20;99.90
43862;DHT22;29510;52.140;5.034;2023-04-24T04:20:17;9.20;99.90
43862;DHT22;29510;52.140;5.034;2023-04-24T04:30:18;9.20;99.90
43862;DHT22;29510;52.140;5.034;2023-04-24T04:40:21;9.20;99.90
43862;DHT22;29510;52.140;5.034;2023-04-24T04:50:22;9.20;99.90
43862;DHT22;29510;52.140;5.034;2023-04-24T05:00:23;9.10;99.90
43862;DHT22;29510;52.140;5.034;2023-04-24T05:10:27;8.90;99.90
43862;DHT22;29510;52.140;5.034;2023-04-24T05:20:28;8.80;99.90
43862;DHT22;29510;52.140;5.034;2023-04-24T05:30:29;8.70;99.90
43862;DHT22;29510;52.140;5.034;2023-04-24T05:40:30;8.80;99.90
43862;DHT22;29510;52.140;5.034;2023-04-24T05:50:31;8.80;99.90
43862;DHT22;29510;52.140;5.034;2023-04-24T06:00:32;8.80;99.90
43862;DHT22;29510;52.140;5.034;2023-04-24T06:10:33;9.10;99.90
43862;DHT22;29510;52.140;5.034;2023-04-24T06:20:34;9.00;99.90
43862;DHT22;29510;52.140;5.034;2023-04-24T06:30:36;8.90;99.90
43862;DHT22;29510;52.140;5.034;2023-04-24T06:40:37;8.80;99.90
43862;DHT22;29510;52.140;5.034;2023-04-24T06:50:38;8.70;99.90
43862;DHT22;29510;52.140;5.034;2023-04-24T07:00:39;8.70;99.90
43862;DHT22;29510;52.140;5.034;2023-04-24T07:10:40;8.70;99.90
43862;DHT22;29510;52.140;5.034;2023-04-24T07:20:41;8.60;99.90
43862;DHT22;29510;52.140;5.034;2023-04-24T07:30:42;8.70;99.90
43862;DHT22;29510;52.140;5.034;2023-04-24T07:40:43;8.70;99.90
43862;DHT22;29510;52.140;5.034;2023-04-24T07:50:44;8.70;99.90
43862;DHT22;29510;52.140;5.034;2023-04-24T08:00:46;8.70;99.90
43862;DHT22;29510;52.140;5.034;2023-04-24T08:10:47;8.60;99.90
43862;DHT22;29510;52.140;5.034;2023-04-24T08:20:48;8.60;99.90
43862;DHT22;29510;52.140;5.034;2023-04-24T08:30:49;8.70;99.90
43862;DHT22;29510;52.140;5.034;2023-04-24T08:40:57;8.80;90.40
43862;DHT22;29510;52.140;5.034;2023-04-24T08:50:59;8.80;62.90
43862;DHT22;29510;52.140;5.034;2023-04-24T09:01:00;8.90;44.80
43862;DHT22;29510;52.140;5.034;2023-04-24T09:11:02;8.80;35.30
43862;DHT22;29510;52.140;5.034;2023-04-24T09:21:07;8.90;23.40
43862;DHT22;29510;52.140;5.034;2023-04-24T09:31:15;9.10;8.70
43862;DHT22;29510;52.140;5.034;2023-04-24T09:41:18;9.30;1.00
43862;DHT22;29510;52.140;5.034;2023-04-24T09:51:33;9.50;1.00
43862;DHT22;29510;52.140;5.034;2023-04-24T10:01:36;9.50;1.00
43862;DHT22;29510;52.140;5.034;2023-04-24T10:11:42;9.30;1.00
43862;DHT22;29510;52.140;5.034;2023-04-24T10:21:44;9.20;1.00
43862;DHT22;29510;52.140;5.034;2023-04-24T10:31:48;9.40;1.00
43862;DHT22;29510;52.140;5.034;2023-04-24T10:41:49;10.00;1.00
43862;DHT22;29510;52.140;5.034;2023-04-24T10:51:52;10.40;1.00
43862;DHT22;29510;52.140;5.034;2023-04-24T11:01:54;10.20;1.00
43862;DHT22;29510;52.140;5.034;2023-04-24T11:12:05;9.60;1.00
43862;DHT22;29510;52.140;5.034;2023-04-24T11:22:17;9.40;9.90
43862;DHT22;29510;52.140;5.034;2023-04-24T11:42:24;10.40;1.00
43862;DHT22;29510;52.140;5.034;2023-04-24T11:52:30;11.00;1.00
43862;DHT22;29510;52.140;5.034;2023-04-24T12:02:31;10.80;1.00
43862;DHT22;29510;52.140;5.034;2023-04-24T12:12:32;10.70;1.00
43862;DHT22;29510;52.140;5.034;2023-04-24T12:22:47;11.80;1.00
43862;DHT22;29510;52.140;5.034;2023-04-24T12:32:49;11.40;1.00
43862;DHT22;29510;52.140;5.034;2023-04-24T12:42:51;11.00;1.00
43862;DHT22;29510;52.140;5.034;2023-04-24T12:52:52;10.60;1.00
43862;DHT22;29510;52.140;5.034;2023-04-24T13:02:53;10.20;1.00
43862;DHT22;29510;52.140;5.034;2023-04-24T13:12:55;10.50;1.00
43862;DHT22;29510;52.140;5.034;2023-04-24T13:22:56;10.70;1.00
43862;DHT22;29510;52.140;5.034;2023-04-24T13:32:57;12.40;1.00
43862;DHT22;29510;52.140;5.034;2023-04-24T13:42:58;12.20;1.00
43862;DHT22;29510;52.140;5.034;2023-04-24T13:52:59;12.80;1.00
43862;DHT22;29510;52.140;5.034;2023-04-24T14:03:02;11.90;1.00
43862;DHT22;29510;52.140;5.034;2023-04-24T14:13:03;11.40;1.00
43862;DHT22;29510;52.140;5.034;2023-04-24T14:23:04;11.80;1.00
43862;DHT22;29510;52.140;5.034;2023-04-24T14:33:05;11.60;1.00
43862;DHT22;29510;52.140;5.034;2023-04-24T14:43:06;11.30;1.00
43862;DHT22;29510;52.140;5.034;2023-04-24T14:53:07;12.30;1.00
43862;DHT22;29510;52.140;5.034;2023-04-24T15:03:08;11.80;1.00
43862;DHT22;29510;52.140;5.034;2023-04-24T15:13:15;10.80;1.00
43862;DHT22;29510;52.140;5.034;2023-04-24T15:23:16;10.30;1.00
43862;DHT22;29510;52.140;5.034;2023-04-24T15:33:17;11.00;1.00
43862;DHT22;29510;52.140;5.034;2023-04-24T15:43:18;11.50;1.00
43862;DHT22;29510;52.140;5.034;2023-04-24T15:53:20;11.20;1.00
43862;DHT22;29510;52.140;5.034;2023-04-24T16:03:23;11.10;1.00
43862;DHT22;29510;52.140;5.034;2023-04-24T16:13:25;11.00;1.00
43862;DHT22;29510;52.140;5.034;2023-04-24T16:23:26;10.90;1.00
43862;DHT22;29510;52.140;5.034;2023-04-24T16:33:27;10.60;1.00
43862;DHT22;29510;52.140;5.034;2023-04-24T16:43:28;10.40;1.00
43862;DHT22;29510;52.140;5.034;2023-04-24T16:53:30;10.30;1.00
43862;DHT22;29510;52.140;5.034;2023-04-24T17:03:31;10.20;1.00
43862;DHT22;29510;52.140;5.034;2023-04-24T17:13:32;10.10;1.00
43862;DHT22;29510;52.140;5.034;2023-04-24T17:23:34;9.80;1.00
43862;DHT22;29510;52.140;5.034;2023-04-24T17:33:35;9.80;1.00
43862;DHT22;29510;52.140;5.034;2023-04-24T17:43:36;9.70;1.00
43862;DHT22;29510;52.140;5.034;2023-04-24T17:53:37;9.50;1.00
43862;DHT22;29510;52.140;5.034;2023-04-24T18:03:38;9.50;1.00
43862;DHT22;29510;52.140;5.034;2023-04-24T18:13:39;9.50;1.00
43862;DHT22;29510;52.140;5.034;2023-04-24T18:23:43;9.50;1.00
43862;DHT22;29510;52.140;5.034;2023-04-24T18:33:44;9.40;1.00
43862;DHT22;29510;52.140;5.034;2023-04-24T18:43:45;9.20;1.00
43862;DHT22;29510;52.140;5.034;2023-04-24T18:53:47;9.20;1.00
43862;DHT22;29510;52.140;5.034;2023-04-24T19:03:48;8.90;1.00
43862;DHT22;29510;52.140;5.034;2023-04-24T19:13:49;8.80;1.00
43862;DHT22;29510;52.140;5.034;2023-04-24T19:23:50;8.60;1.00
43862;DHT22;29510;52.140;5.034;2023-04-24T19:33:52;8.60;1.00
43862;DHT22;29510;52.140;5.034;2023-04-24T19:43:53;8.50;1.00
43862;DHT22;29510;52.140;5.034;2023-04-24T19:53:54;8.50;1.00
43862;DHT22;29510;52.140;5.034;2023-04-24T20:03:55;8.40;1.00
43862;DHT22;29510;52.140;5.034;2023-04-24T20:13:56;8.20;1.00
43862;DHT22;29510;52.140;5.034;2023-04-24T20:23:58;8.20;1.00
43862;DHT22;29510;52.140;5.034;2023-04-24T20:33:59;8.20;1.00
43862;DHT22;29510;52.140;5.034;2023-04-24T20:44:00;8.10;1.00
43862;DHT22;29510;52.140;5.034;2023-04-24T20:54:01;8.00;1.00
43862;DHT22;29510;52.140;5.034;2023-04-24T21:04:03;8.00;1.00
43862;DHT22;29510;52.140;5.034;2023-04-24T21:14:04;8.10;1.00
43862;DHT22;29510;52.140;5.034;2023-04-24T21:24:05;7.90;1.00
43862;DHT22;29510;52.140;5.034;2023-04-24T21:34:07;7.80;1.00
43862;DHT22;29510;52.140;5.034;2023-04-24T21:44:08;7.80;1.00
43862;DHT22;29510;52.140;5.034;2023-04-24T21:54:09;7.90;1.00
43862;DHT22;29510;52.140;5.034;2023-04-24T22:04:10;7.80;1.00
43862;DHT22;29510;52.140;5.034;2023-04-24T22:14:11;7.60;3.50
43862;DHT22;29510;52.140;5.034;2023-04-24T22:24:13;7.50;7.20
43862;DHT22;29510;52.140;5.034;2023-04-24T22:34:15;7.50;8.70
43862;DHT22;29510;52.140;5.034;2023-04-24T22:44:16;7.30;8.10
43862;DHT22;29510;52.140;5.034;2023-04-24T22:54:19;7.20;5.00
43862;DHT22;29510;52.140;5.034;2023-04-24T23:04:20;7.10;6.20
43862;DHT22;29510;52.140;5.034;2023-04-24T23:14:21;7.00;4.70
43862;DHT22;29510;52.140;5.034;2023-04-24T23:24:24;6.80;7.60
43862;DHT22;29510;52.140;5.034;2023-04-24T23:34:27;6.60;10.10
43862;DHT22;29510;52.140;5.034;2023-04-24T23:44:29;6.50;13.20
43862;DHT22;29510;52.140;5.034;2023-04-24T23:54:30;6.60;23.50
